createdAt,value
2022-08-10T00:01:01.429Z,7.30
2022-08-10T00:03:31.612Z,7.50
2022-08-10T00:06:04.662Z,7.60
2022-08-10T00:08:35.741Z,7.70
2022-08-10T00:11:15.425Z,7.80
2022-08-10T00:13:48.292Z,7.90
2022-08-10T00:16:18.594Z,8.10
2022-08-10T00:18:55.336Z,8.30
2022-08-10T00:21:29.806Z,8.50
2022-08-10T00:24:05.062Z,8.50
2022-08-10T00:27:53.058Z,8.60
2022-08-10T00:29:26.190Z,8.70
2022-08-10T00:31:58.509Z,8.80
2022-08-10T00:34:35.110Z,8.90
2022-08-10T00:37:05.468Z,9.00
2022-08-10T00:39:39.442Z,9.10
2022-08-10T00:42:11.603Z,9.20
2022-08-10T00:44:44.590Z,9.30
2022-08-10T00:47:37.048Z,9.40
2022-08-10T00:50:09.614Z,9.60
2022-08-10T00:52:58.554Z,9.70
2022-08-10T00:55:29.953Z,9.80
2022-08-10T00:58:01.131Z,9.90
2022-08-10T01:00:31.803Z,10.00
2022-08-10T01:03:02.766Z,10.10
2022-08-10T01:05:33.280Z,10.10
2022-08-10T01:12:37.846Z,10.20
2022-08-10T01:15:17.590Z,10.50
2022-08-10T01:18:17.153Z,10.60
2022-08-10T01:21:15.808Z,10.70
2022-08-10T01:24:00.451Z,10.80
2022-08-10T01:26:59.750Z,10.90
2022-08-10T01:29:59.501Z,10.90
2022-08-10T01:32:52.755Z,11.00
2022-08-10T01:35:31.986Z,11.20
2022-08-10T01:38:47.839Z,11.20
2022-08-10T01:41:45.856Z,11.30
2022-08-10T01:44:48.030Z,11.30
2022-08-10T01:47:42.783Z,11.40
2022-08-10T01:50:22.800Z,11.50
2022-08-10T01:52:58.194Z,11.60
2022-08-10T01:55:31.212Z,11.80
2022-08-10T01:58:03.774Z,11.90
2022-08-10T02:00:39.156Z,12.00
2022-08-10T02:03:12.770Z,11.90
2022-08-10T02:05:46.932Z,12.00
2022-08-10T02:08:26.107Z,12.20
2022-08-10T02:10:57.792Z,12.30
2022-08-10T02:13:30.184Z,12.30
2022-08-10T02:16:03.432Z,12.30
2022-08-10T02:18:35.075Z,12.50
2022-08-10T02:21:09.235Z,12.70
2022-08-10T02:23:43.300Z,12.80
2022-08-10T02:26:15.670Z,12.90
2022-08-10T02:28:46.945Z,13.00
2022-08-10T02:31:22.309Z,13.10
2022-08-10T02:33:59.358Z,13.20
2022-08-10T02:36:34.057Z,13.30
2022-08-10T02:39:07.784Z,13.40
2022-08-10T02:45:03.528Z,13.40
2022-08-10T02:45:27.818Z,13.50
2022-08-10T02:47:50.951Z,13.50
2022-08-10T02:50:43.179Z,13.60
2022-08-10T02:53:55.305Z,13.60
2022-08-10T02:56:39.954Z,13.60
2022-08-10T02:59:20.790Z,13.60
2022-08-10T03:01:53.927Z,13.50
2022-08-10T03:04:54.894Z,13.60
2022-08-10T03:07:43.625Z,13.70
2022-08-10T03:10:32.872Z,13.80
2022-08-10T03:13:08.507Z,13.90
2022-08-10T03:15:41.637Z,14.00
2022-08-10T03:18:13.242Z,14.00
2022-08-10T03:21:00.093Z,14.10
2022-08-10T03:23:41.630Z,14.20
2022-08-10T03:26:19.966Z,14.20
2022-08-10T03:31:36.652Z,14.00
2022-08-10T03:34:22.257Z,13.90
2022-08-10T03:37:04.741Z,13.80
2022-08-10T03:39:35.255Z,13.70
2022-08-10T03:42:08.661Z,13.60
2022-08-10T03:44:40.524Z,13.60
2022-08-10T03:47:15.118Z,13.50
2022-08-10T03:49:49.699Z,13.50
2022-08-10T03:52:21.178Z,13.40
2022-08-10T03:54:53.374Z,13.40
2022-08-10T03:57:49.326Z,13.50
2022-08-10T04:00:20.504Z,13.60
2022-08-10T04:02:52.995Z,13.70
2022-08-10T04:05:24.972Z,13.90
2022-08-10T04:08:10.768Z,14.00
2022-08-10T04:10:46.112Z,14.10
2022-08-10T04:13:20.810Z,14.20
2022-08-10T04:15:51.451Z,14.20
2022-08-10T04:18:21.793Z,14.20
2022-08-10T04:20:57.802Z,14.20
2022-08-10T04:23:36.524Z,14.20
2022-08-10T04:26:07.718Z,14.10
2022-08-10T04:28:40.108Z,13.90
2022-08-10T04:31:16.217Z,13.80
2022-08-10T04:33:51.053Z,13.80
2022-08-10T04:36:25.732Z,13.80
2022-08-10T04:38:57.682Z,13.80
2022-08-10T04:41:29.676Z,13.80
2022-08-10T04:44:00.080Z,13.80
2022-08-10T04:46:32.958Z,13.80
2022-08-10T04:49:56.643Z,13.80
2022-08-10T04:52:03.995Z,13.80
2022-08-10T04:54:42.233Z,13.80
2022-08-10T04:57:16.601Z,13.90
2022-08-10T04:59:47.092Z,13.90
2022-08-10T05:02:38.796Z,13.80
2022-08-10T05:05:10.198Z,13.70
2022-08-10T05:07:53.830Z,13.70
2022-08-10T05:10:28.547Z,13.70
2022-08-10T05:13:01.003Z,13.70
2022-08-10T05:15:33.640Z,13.70
2022-08-10T05:18:09.526Z,13.60
2022-08-10T05:20:42.283Z,13.40
2022-08-10T05:23:12.976Z,13.20
2022-08-10T05:25:44.930Z,13.10
2022-08-10T05:28:16.494Z,13.00
2022-08-10T05:30:51.692Z,12.90
2022-08-10T05:33:22.471Z,12.80
2022-08-10T05:35:58.093Z,12.70
2022-08-10T05:38:32.447Z,12.70
2022-08-10T05:41:03.804Z,12.70
2022-08-10T05:43:34.343Z,12.60
2022-08-10T05:46:16.705Z,12.60
2022-08-10T05:49:00.449Z,12.60
2022-08-10T05:51:38.594Z,12.50
2022-08-10T05:54:16.595Z,12.50
2022-08-10T05:56:55.249Z,12.50
2022-08-10T06:00:35.831Z,12.50
2022-08-10T06:02:38.500Z,12.50
2022-08-10T06:05:12.689Z,12.40
2022-08-10T06:07:49.462Z,12.40
2022-08-10T06:10:32.804Z,12.40
2022-08-10T06:13:30.737Z,12.30
2022-08-10T06:16:14.109Z,12.30
2022-08-10T06:18:45.688Z,12.20
2022-08-10T06:21:18.511Z,12.20
2022-08-10T06:23:49.406Z,12.20
2022-08-10T06:26:21.719Z,12.10
2022-08-10T06:29:10.461Z,12.10
2022-08-10T06:31:53.892Z,12.10
2022-08-10T06:34:39.071Z,12.10
2022-08-10T06:37:11.648Z,12.00
2022-08-10T06:39:42.226Z,12.00
2022-08-10T06:42:35.512Z,12.00
2022-08-10T06:45:21.806Z,11.90
2022-08-10T06:48:11.028Z,11.90
2022-08-10T06:50:58.227Z,11.80
2022-08-10T06:53:53.011Z,11.80
2022-08-10T06:57:08.110Z,11.80
2022-08-10T06:59:48.830Z,11.80
2022-08-10T07:02:29.451Z,11.80
2022-08-10T07:05:14.372Z,11.80
2022-08-10T07:07:48.121Z,11.70
2022-08-10T07:10:21.962Z,11.70
2022-08-10T07:12:58.014Z,11.60
2022-08-10T07:15:59.861Z,11.60
2022-08-10T07:18:21.708Z,11.60
2022-08-10T07:20:53.934Z,11.50
2022-08-10T07:23:58.221Z,11.50
2022-08-10T07:26:20.736Z,11.40
2022-08-10T07:28:53.297Z,11.30
2022-08-10T07:31:55.441Z,11.30
2022-08-10T07:34:21.846Z,11.20
2022-08-10T07:37:12.061Z,11.10
2022-08-10T07:40:02.430Z,11.10
2022-08-10T07:42:36.211Z,11.00
2022-08-10T07:45:08.791Z,10.90
2022-08-10T07:48:07.172Z,10.80
2022-08-10T07:50:42.120Z,10.70
2022-08-10T07:53:21.466Z,10.60
2022-08-10T07:56:05.006Z,10.50
2022-08-10T07:58:52.018Z,10.40
2022-08-10T08:01:28.774Z,10.40
2022-08-10T08:04:05.580Z,10.30
2022-08-10T08:06:46.597Z,10.30
2022-08-10T08:09:18.160Z,10.20
2022-08-10T08:11:51.193Z,10.20
2022-08-10T08:14:26.132Z,10.10
2022-08-10T08:16:58.422Z,10.10
2022-08-10T08:19:37.708Z,10.00
2022-08-10T08:24:10.071Z,10.10
2022-08-10T08:25:07.213Z,10.00
2022-08-10T08:27:47.579Z,10.00
2022-08-10T08:30:27.028Z,9.90
2022-08-10T08:33:00.702Z,9.90
2022-08-10T08:38:34.864Z,9.90
2022-08-10T08:41:42.700Z,9.80
2022-08-10T08:44:50.771Z,9.90
2022-08-10T08:48:14.453Z,9.80
2022-08-10T08:52:09.858Z,9.80
2022-08-10T08:54:50.960Z,9.70
2022-08-10T08:58:17.917Z,9.70
2022-08-10T09:01:13.952Z,9.60
2022-08-10T09:04:21.216Z,9.50
2022-08-10T09:08:01.043Z,9.50
2022-08-10T09:10:37.498Z,9.40
2022-08-10T09:13:28.872Z,9.40
2022-08-10T09:16:24.855Z,9.30
2022-08-10T09:19:35.406Z,9.30
2022-08-10T09:22:42.188Z,9.20
2022-08-10T09:25:29.195Z,9.10
2022-08-10T09:28:08.251Z,9.00
2022-08-10T09:31:23.105Z,9.00
2022-08-10T09:36:19.621Z,8.90
2022-08-10T09:37:42.557Z,8.90
2022-08-10T09:41:12.804Z,8.80
2022-08-10T09:44:16.968Z,8.80
2022-08-10T09:47:58.542Z,8.80
2022-08-10T09:51:22.659Z,8.80
2022-08-10T09:53:47.762Z,8.80
2022-08-10T09:56:43.755Z,8.80
2022-08-10T09:59:29.228Z,8.80
2022-08-10T10:02:29.744Z,8.80
2022-08-10T10:05:10.757Z,8.70
2022-08-10T10:07:48.131Z,8.70
2022-08-10T10:10:27.411Z,8.70
2022-08-10T10:13:11.508Z,8.60
2022-08-10T10:16:30.485Z,8.60
2022-08-10T10:19:25.800Z,8.60
2022-08-10T10:22:27.370Z,8.60
2022-08-10T10:32:19.309Z,8.60
2022-08-10T10:35:13.344Z,8.60
2022-08-10T10:38:02.706Z,8.50
2022-08-10T10:41:11.645Z,8.50
2022-08-10T10:44:53.980Z,8.50
2022-08-10T10:47:56.428Z,8.40
2022-08-10T10:50:53.080Z,8.40
2022-08-10T10:53:32.967Z,8.40
2022-08-10T10:56:41.547Z,8.40
2022-08-10T10:59:56.345Z,8.30
2022-08-10T11:03:08.382Z,8.20
2022-08-10T11:05:49.881Z,8.10
2022-08-10T11:08:37.995Z,8.10
2022-08-10T11:12:00.282Z,8.00
2022-08-10T11:15:13.948Z,7.90
2022-08-10T11:18:03.348Z,7.80
2022-08-10T11:21:06.915Z,7.80
2022-08-10T11:24:48.270Z,7.70
2022-08-10T11:27:24.060Z,7.70
2022-08-10T11:30:09.175Z,7.60
2022-08-10T11:33:42.711Z,7.50
2022-08-10T11:36:55.582Z,7.40
2022-08-10T11:39:49.468Z,7.40
2022-08-10T11:43:02.412Z,7.40
2022-08-10T11:45:38.862Z,7.30
2022-08-10T11:48:54.102Z,7.30
2022-08-10T11:51:42.188Z,7.20
2022-08-10T11:57:12.910Z,7.20
2022-08-10T12:00:11.600Z,7.20
2022-08-10T12:02:53.424Z,7.10
2022-08-10T12:05:54.631Z,7.10
2022-08-10T12:10:07.079Z,7.00
2022-08-10T12:11:32.256Z,7.00
2022-08-10T12:14:21.398Z,7.10
2022-08-10T12:17:30.880Z,7.00
2022-08-10T12:20:29.049Z,7.00
2022-08-10T12:23:43.171Z,7.00
2022-08-10T12:27:17.578Z,7.00
2022-08-10T12:30:05.413Z,7.00
2022-08-10T12:33:27.735Z,7.00
2022-08-10T12:36:35.915Z,7.00
2022-08-10T12:39:28.475Z,7.10
2022-08-10T12:42:38.993Z,7.10
2022-08-10T12:45:37.850Z,7.10
2022-08-10T12:48:31.860Z,7.20
2022-08-10T12:51:21.288Z,7.20
2022-08-10T12:54:01.469Z,7.20
2022-08-10T12:56:43.801Z,7.20
2022-08-10T12:59:16.021Z,7.20
2022-08-10T13:02:07.605Z,7.20
2022-08-10T13:04:47.848Z,7.20
2022-08-10T13:08:06.470Z,7.20
2022-08-10T13:10:30.345Z,7.30
2022-08-10T13:13:03.773Z,7.30
2022-08-10T13:15:49.069Z,7.30
2022-08-10T13:18:44.948Z,7.30
2022-08-10T13:21:20.253Z,7.20
2022-08-10T13:24:16.350Z,7.30
2022-08-10T13:27:25.883Z,7.30
2022-08-10T13:30:06.903Z,7.30
2022-08-10T13:32:44.677Z,7.30
2022-08-10T13:35:23.205Z,7.20
2022-08-10T13:38:00.116Z,7.20
2022-08-10T13:40:35.319Z,7.20
2022-08-10T13:43:11.382Z,7.20
2022-08-10T13:45:50.045Z,7.20
2022-08-10T13:48:24.758Z,7.20
2022-08-10T13:51:02.316Z,7.20
2022-08-10T13:53:37.840Z,7.10
2022-08-10T13:56:10.975Z,7.10
2022-08-10T13:58:45.826Z,7.00
2022-08-10T14:01:20.201Z,7.10
2022-08-10T14:03:52.940Z,7.00
2022-08-10T14:06:29.299Z,7.00
2022-08-10T14:09:09.579Z,6.90
2022-08-10T14:11:47.207Z,6.90
2022-08-10T14:14:22.185Z,6.90
2022-08-10T14:16:54.301Z,6.80
2022-08-10T14:19:33.737Z,6.80
2022-08-10T14:22:09.620Z,6.70
2022-08-10T14:24:40.511Z,6.70
2022-08-10T14:27:15.243Z,6.70
2022-08-10T14:29:53.645Z,6.60
2022-08-10T14:32:37.034Z,6.60
2022-08-10T14:36:21.110Z,6.50
2022-08-10T14:38:26.904Z,6.50
2022-08-10T14:41:02.035Z,6.50
2022-08-10T14:43:43.118Z,6.50
2022-08-10T14:46:21.053Z,6.40
2022-08-10T14:48:57.706Z,6.40
2022-08-10T14:51:44.071Z,6.30
2022-08-10T14:54:19.632Z,6.30
2022-08-10T14:56:55.746Z,6.20
2022-08-10T15:00:24.188Z,6.10
2022-08-10T15:02:40.328Z,6.10
2022-08-10T15:05:24.180Z,6.10
2022-08-10T15:08:09.560Z,6.00
2022-08-10T15:10:43.538Z,6.00
2022-08-10T15:13:34.852Z,6.00
2022-08-10T15:16:12.937Z,6.00
2022-08-10T15:18:58.183Z,6.00
2022-08-10T15:21:43.040Z,6.00
2022-08-10T15:24:42.038Z,6.00
2022-08-10T15:27:14.043Z,5.90
2022-08-10T15:29:58.319Z,5.90
2022-08-10T15:33:06.971Z,5.90
2022-08-10T15:35:59.721Z,5.90
2022-08-10T15:38:45.670Z,5.90
2022-08-10T15:41:20.381Z,5.80
2022-08-10T15:44:04.911Z,5.80
2022-08-10T15:46:46.801Z,5.80
2022-08-10T15:49:35.520Z,5.80
2022-08-10T15:52:39.103Z,5.80
2022-08-10T15:55:41.187Z,5.70
2022-08-10T15:58:14.518Z,5.60
2022-08-10T16:00:59.654Z,5.60
2022-08-10T16:03:54.448Z,5.50
2022-08-10T16:06:33.673Z,5.50
2022-08-10T16:10:24.210Z,5.40
2022-08-10T16:12:30.381Z,5.40
2022-08-10T16:15:08.159Z,5.40
2022-08-10T16:18:05.363Z,5.30
2022-08-10T16:20:53.288Z,5.30
2022-08-10T16:23:37.682Z,5.30
2022-08-10T16:26:17.580Z,5.20
2022-08-10T16:28:59.986Z,5.20
2022-08-10T16:31:37.410Z,5.20
2022-08-10T16:34:16.522Z,5.10
2022-08-10T16:37:11.851Z,5.10
2022-08-10T16:39:59.964Z,5.00
2022-08-10T16:42:45.243Z,5.00
2022-08-10T16:45:26.655Z,4.90
2022-08-10T16:48:00.305Z,4.90
2022-08-10T16:50:43.830Z,4.80
2022-08-10T16:53:20.532Z,4.80
2022-08-10T16:55:53.340Z,4.80
2022-08-10T16:58:39.365Z,4.80
2022-08-10T17:01:16.483Z,4.70
2022-08-10T17:04:06.173Z,4.70
2022-08-10T17:07:11.083Z,4.70
2022-08-10T17:09:49.835Z,4.70
2022-08-10T17:12:29.396Z,4.60
2022-08-10T17:15:10.174Z,4.60
2022-08-10T17:17:50.651Z,4.60
2022-08-10T17:20:32.750Z,4.60
2022-08-10T17:23:19.706Z,4.50
2022-08-10T17:26:01.896Z,4.50
2022-08-10T17:28:41.479Z,4.50
2022-08-10T17:31:54.553Z,4.40
2022-08-10T17:35:04.959Z,4.40
2022-08-10T17:37:42.563Z,4.40
2022-08-10T17:40:21.076Z,4.30
2022-08-10T17:42:53.600Z,4.30
2022-08-10T17:45:47.863Z,4.30
2022-08-10T17:48:29.448Z,4.30
2022-08-10T17:51:00.921Z,4.20
2022-08-10T17:53:48.301Z,4.20
2022-08-10T17:56:28.816Z,4.10
2022-08-10T17:59:16.715Z,4.00
2022-08-10T18:02:01.439Z,4.00
2022-08-10T18:04:41.930Z,4.00
2022-08-10T18:07:17.231Z,4.00
2022-08-10T18:09:59.089Z,4.00
2022-08-10T18:12:49.570Z,3.90
2022-08-10T18:15:24.613Z,4.00
2022-08-10T18:17:59.490Z,3.90
2022-08-10T18:20:53.030Z,3.90
2022-08-10T18:23:35.106Z,3.90
2022-08-10T18:26:19.306Z,3.90
2022-08-10T18:28:55.062Z,3.90
2022-08-10T18:31:31.292Z,3.90
2022-08-10T18:34:02.870Z,3.90
2022-08-10T18:36:35.948Z,4.00
2022-08-10T18:39:19.837Z,3.90
2022-08-10T18:42:05.040Z,4.00
2022-08-10T18:44:49.520Z,3.90
2022-08-10T18:47:59.122Z,3.90
2022-08-10T18:50:36.630Z,3.90
2022-08-10T18:53:58.606Z,3.90
2022-08-10T18:56:32.651Z,3.90
2022-08-10T19:00:07.723Z,3.90
2022-08-10T19:03:27.296Z,3.90
2022-08-10T19:06:37.077Z,3.90
2022-08-10T19:09:48.295Z,3.90
2022-08-10T19:12:58.858Z,3.90
2022-08-10T19:16:04.544Z,3.90
2022-08-10T19:18:54.695Z,3.90
2022-08-10T19:21:48.045Z,3.90
2022-08-10T19:24:38.717Z,3.90
2022-08-10T19:27:39.259Z,3.90
2022-08-10T19:30:22.014Z,3.90
2022-08-10T19:32:57.919Z,4.00
2022-08-10T19:36:02.961Z,3.90
2022-08-10T19:38:50.254Z,4.00
2022-08-10T19:41:41.956Z,3.90
2022-08-10T19:45:02.457Z,4.00
2022-08-10T19:48:00.693Z,4.00
2022-08-10T19:50:31.424Z,4.00
2022-08-10T19:53:50.716Z,4.00
2022-08-10T20:07:21.869Z,4.00
2022-08-10T20:10:31.598Z,4.10
2022-08-10T20:16:43.422Z,4.00
2022-08-10T20:20:04.695Z,4.10
2022-08-10T20:22:52.176Z,4.10
2022-08-10T20:25:34.759Z,4.20
2022-08-10T20:28:52.015Z,4.20
2022-08-10T20:31:30.879Z,4.20
2022-08-10T20:34:08.446Z,4.20
2022-08-10T20:36:51.387Z,4.30
2022-08-10T20:39:33.610Z,4.30
2022-08-10T20:42:16.278Z,4.30
2022-08-10T20:44:49.261Z,4.40
2022-08-10T20:47:58.363Z,4.40
2022-08-10T20:50:58.654Z,4.40
2022-08-10T20:53:53.793Z,4.50
2022-08-10T20:56:48.174Z,4.50
2022-08-10T21:00:04.135Z,4.60
2022-08-10T21:02:48.107Z,4.60
2022-08-10T21:05:58.284Z,4.70
2022-08-10T21:22:54.390Z,4.80
2022-08-10T21:25:32.215Z,4.80
2022-08-10T21:36:29.531Z,4.90
2022-08-10T21:42:42.944Z,5.00
2022-08-10T21:46:30.134Z,5.10
2022-08-10T21:49:46.413Z,5.10
2022-08-10T21:53:44.983Z,5.20
2022-08-10T21:56:46.625Z,5.30
2022-08-10T22:00:03.026Z,5.30
2022-08-10T22:02:57.975Z,5.40
2022-08-10T22:06:02.583Z,5.50
2022-08-10T22:09:18.457Z,5.60
2022-08-10T22:12:25.026Z,5.60
2022-08-10T22:16:01.566Z,5.70
2022-08-10T22:19:01.892Z,5.80
2022-08-10T22:22:37.320Z,5.80
2022-08-10T22:25:51.952Z,5.90
2022-08-10T22:28:42.405Z,5.90
2022-08-10T22:32:17.182Z,6.00
2022-08-10T22:35:40.214Z,6.00
2022-08-10T22:39:01.363Z,6.00
2022-08-10T22:45:38.231Z,6.10
2022-08-10T22:48:32.900Z,6.10
2022-08-10T22:51:13.634Z,6.10
2022-08-10T22:54:31.546Z,6.10
2022-08-10T22:57:23.550Z,6.10
2022-08-10T22:59:54.669Z,6.20
2022-08-10T23:03:06.464Z,6.20
2022-08-10T23:05:43.445Z,6.20
2022-08-10T23:08:30.433Z,6.30
2022-08-10T23:11:15.151Z,6.30
2022-08-10T23:13:48.746Z,6.30
2022-08-10T23:16:46.941Z,6.40
2022-08-10T23:19:20.696Z,6.40
2022-08-10T23:22:07.471Z,6.50
2022-08-10T23:25:12.816Z,6.60
2022-08-10T23:27:55.699Z,6.60
2022-08-10T23:30:38.966Z,6.70
2022-08-10T23:33:38.181Z,6.80
2022-08-10T23:36:33.660Z,6.80
2022-08-10T23:39:26.555Z,6.90
2022-08-10T23:42:26.119Z,7.00
2022-08-10T23:45:19.297Z,7.10
2022-08-10T23:48:10.024Z,7.10
2022-08-10T23:50:43.785Z,7.20
2022-08-10T23:53:35.941Z,7.30
2022-08-10T23:56:24.436Z,7.40
2022-08-10T23:59:01.104Z,7.40
